PrinceSS Juana K — HPFV — position and weather

sailwx.info

Track history (hours):
 
Tides and Currents Weather Stations Pressure Air Temp Water Temp Dewpoint Dewpoint Depression Visibility Wind Speed Wind Dir Waves Ship Positions

PrinceSS Juana K

Last reported at 2014-Oct-02 07:33 UTC. Time now 2014-Oct-02 08:35 UTC.
Position N 44°43' E 037°48'.

Length 145 m; draft 5.2 m.

Type: Cargo ship. MMSI: 352982000.

Date/timePositionNaut miles runAvg speedWind from/ knotsBaromVisibWave heightAir tempDewpointWater temp
2014-Oct-02 07:33N 44°43' E 037°48'0 0.0
2014-Oct-02 06:31N 44°43' E 037°48'0 0.0
2014-Oct-02 05:33N 44°43' E 037°48'0 0.0
2014-Oct-02 04:32N 44°43' E 037°48'0 0.0
2014-Oct-02 03:32N 44°43' E 037°48'0 0.0
2014-Oct-02 02:31N 44°43' E 037°48'0 0.0
2014-Oct-02 01:33N 44°43' E 037°48'0 0.0
2014-Oct-02 00:33N 44°43' E 037°48'0 0.0
2014-Oct-01 23:32N 44°43' E 037°48'0 0.0
2014-Oct-01 22:31N 44°43' E 037°48'0 0.0
2014-Oct-01 21:31N 44°43' E 037°48'0 0.0
2014-Oct-01 20:33N 44°43' E 037°48'0 0.0
2014-Oct-01 19:33N 44°43' E 037°48'0 0.0
2014-Oct-01 18:32N 44°43' E 037°48'0 0.0
2014-Oct-01 17:32N 44°43' E 037°48'0 0.0
2014-Oct-01 16:32N 44°43' E 037°48'0 0.0
2014-Oct-01 15:31N 44°43' E 037°48'0 0.0
2014-Oct-01 14:31N 44°43' E 037°48'0 0.0
2014-Oct-01 13:31N 44°43' E 037°48'0 0.0
2014-Oct-01 12:32N 44°43' E 037°48'0 0.0
2014-Oct-01 11:32N 44°43' E 037°48'0 0.0
2014-Oct-01 10:32N 44°43' E 037°48'0 0.0
2014-Oct-01 09:32N 44°43' E 037°48'0 0.0
2014-Oct-01 08:32N 44°43' E 037°48'  
2014-Sep-29 03:26N 44°43' E 037°48'0 0.0
2014-Sep-29 02:33N 44°43' E 037°48'0 0.0
2014-Sep-29 01:32N 44°43' E 037°48'0 0.0
2014-Sep-29 00:32N 44°43' E 037°48'0 0.0
2014-Sep-28 23:32N 44°43' E 037°48'0 0.0
2014-Sep-28 22:33N 44°43' E 037°48'0 0.0
2014-Sep-28 21:33N 44°43' E 037°48'0 0.0
2014-Sep-28 20:33N 44°43' E 037°48'0 0.0
2014-Sep-28 19:31N 44°43' E 037°48'0 0.0
2014-Sep-28 18:32N 44°43' E 037°48'0 0.0
2014-Sep-28 17:34N 44°43' E 037°48'0 0.0
2014-Sep-28 16:32N 44°43' E 037°48'0 0.0
2014-Sep-28 15:31N 44°43' E 037°48'0 0.0
2014-Sep-28 14:34N 44°43' E 037°48'0 0.0
2014-Sep-28 13:33N 44°43' E 037°48'0 0.0
2014-Sep-28 12:32N 44°43' E 037°48'0 0.0
2014-Sep-28 11:32N 44°43' E 037°48'0 0.0
2014-Sep-28 10:32N 44°43' E 037°48'0 0.0
2014-Sep-28 09:32N 44°43' E 037°48'0 0.0
2014-Sep-28 08:33N 44°43' E 037°48'0 0.0
2014-Sep-28 07:33N 44°43' E 037°48'0 0.0
2014-Sep-28 06:31N 44°43' E 037°48'0 0.1
2014-Sep-28 05:33N 44°43' E 037°48'0 0.0
2014-Sep-28 04:28N 44°43' E 037°48'0 0.0
2014-Sep-28 03:31N 44°43' E 037°48'0 0.0
2014-Sep-28 02:34N 44°43' E 037°48'0 0.0
2014-Sep-28 01:31N 44°43' E 037°48'0 0.0
2014-Sep-27 23:32N 44°43' E 037°48'0 0.0
2014-Sep-27 22:33N 44°43' E 037°48'0 0.0
2014-Sep-27 21:32N 44°43' E 037°48'0 0.0
2014-Sep-27 20:33N 44°43' E 037°48'0 0.0
2014-Sep-27 19:32N 44°43' E 037°48'0 0.0
2014-Sep-27 18:33N 44°43' E 037°48'0 0.0
2014-Sep-27 17:32N 44°43' E 037°48'0 0.0
2014-Sep-27 16:34N 44°43' E 037°48'0 0.0
2014-Sep-27 15:33N 44°43' E 037°48'0 0.0
2014-Sep-27 14:32N 44°43' E 037°48'0 0.0
2014-Sep-27 13:34N 44°43' E 037°48'0 0.0
2014-Sep-27 12:33N 44°43' E 037°48'0 0.0
2014-Sep-27 11:33N 44°43' E 037°48'0 0.0
2014-Sep-27 10:33N 44°43' E 037°48'0 0.1
2014-Sep-27 09:15N 44°43' E 037°48'0 0.1
2014-Sep-27 08:32N 44°43' E 037°48'0 0.0
2014-Sep-27 07:33N 44°43' E 037°48'1 1.5
2014-Sep-27 06:33N 44°42' E 037°49'6 6.0
2014-Sep-27 05:33N 44°36' E 037°52'7 7.0
2014-Sep-27 04:33N 44°31' E 037°46'7 7.4
2014-Sep-27 03:33N 44°27' E 037°37'432 8.5
2014-Sep-25 00:29N 41°01' E 029°00'7 7.5
2014-Sep-24 23:33N 40°55' E 028°57'5 4.2
2014-Sep-24 22:26N 40°50' E 028°55'6 6.4
2014-Sep-24 21:33N 40°46' E 029°01'1 1.3
2014-Sep-24 20:31N 40°45' E 029°01'1 1.1
2014-Sep-24 19:29N 40°44' E 029°03'1 1.2
2014-Sep-24 18:32N 40°44' E 029°04'0 0.5
2014-Sep-24 17:33N 40°44' E 029°04'0 0.3
2014-Sep-24 16:22N 40°43' E 029°04'0 0.3
2014-Sep-24 15:29N 40°43' E 029°04'0 0.5
2014-Sep-24 14:32N 40°43' E 029°04'1 0.7
2014-Sep-24 13:30N 40°43' E 029°03'1 1.0
2014-Sep-24 12:25N 40°43' E 029°01'1 1.1
2014-Sep-24 11:33N 40°43' E 029°00'1 1.3
2014-Sep-24 10:28N 40°42' E 028°58'1 1.1
2014-Sep-24 09:33N 40°42' E 028°57'1 1.2
2014-Sep-24 08:33N 40°42' E 028°55'1 1.0
2014-Sep-24 07:32N 40°42' E 028°54'1 1.0
2014-Sep-24 06:31N 40°43' E 028°53'2 1.0
2014-Sep-24 04:24N 40°43' E 028°50'1 0.9
2014-Sep-24 03:21N 40°44' E 028°49'1 0.6
2014-Sep-24 02:04N 40°44' E 028°48'3 5.3
2014-Sep-24 01:33N 40°45' E 028°51'6 5.6
2014-Sep-24 00:33N 40°43' E 028°57'1 1.0
2014-Sep-23 23:29N 40°42' E 028°56'1 1.2
2014-Sep-23 22:33N 40°43' E 028°55'2 1.3
2014-Sep-23 21:09N 40°44' E 028°53'1 1.3
2014-Sep-23 20:24N 40°44' E 028°52'1 1.3
2014-Sep-23 19:27N 40°45' E 028°51'3 1.5
2014-Sep-23 17:30N 40°46' E 028°47'5 4.6
2014-Sep-23 16:29N 40°44' E 028°52'4 3.9
2014-Sep-23 15:26N 40°42' E 028°57'2 2.2
2014-Sep-23 14:31N 40°44' E 028°56'4 3.7
2014-Sep-23 13:23N 40°48' E 028°56'2 2.0
2014-Sep-23 12:26N 40°49' E 028°54'6 6.8
2014-Sep-23 11:33N 40°55' E 028°56'3 2.2
2014-Sep-23 10:06N 40°58' E 028°54'0 0.0
2014-Sep-23 08:26N 40°58' E 028°54'0 0.0
2014-Sep-23 07:31N 40°58' E 028°54'0 0.0
2014-Sep-23 05:33N 40°58' E 028°54'0 0.0
2014-Sep-23 04:33N 40°58' E 028°54'0 0.0
2014-Sep-23 03:33N 40°58' E 028°54'0 0.0
2014-Sep-22 22:26N 40°58' E 028°54'0 0.0
2014-Sep-22 20:33N 40°58' E 028°54'0 0.1
2014-Sep-22 19:33N 40°58' E 028°54'0 0.0
2014-Sep-22 17:21N 40°58' E 028°54'0 0.0
2014-Sep-22 16:04N 40°58' E 028°54'0 0.0
2014-Sep-22 15:26N 40°58' E 028°54'0 0.1
2014-Sep-22 14:30N 40°58' E 028°54'0 0.0
2014-Sep-22 08:06N 40°58' E 028°54'  
Track history (hours):
 
Tides and Currents Weather Stations Pressure Air Temp Water Temp Dewpoint Dewpoint Depression Visibility Wind Speed Wind Dir Waves Ship Positions

PrinceSS Juana K

Last reported at 2014-Oct-02 07:33 UTC. Time now 2014-Oct-02 08:35 UTC.
Position N 44°43' E 037°48'.

Length 145 m; draft 5.2 m.

Type: Cargo ship. MMSI: 352982000.

Date/timePositionNaut miles runAvg speedWind from/ knotsBaromVisibWave heightAir tempDewpointWater temp
2014-Oct-02 07:33N 44°43' E 037°48'0 0.0
2014-Oct-02 06:31N 44°43' E 037°48'0 0.0
2014-Oct-02 05:33N 44°43' E 037°48'0 0.0
2014-Oct-02 04:32N 44°43' E 037°48'0 0.0
2014-Oct-02 03:32N 44°43' E 037°48'0 0.0
2014-Oct-02 02:31N 44°43' E 037°48'0 0.0
2014-Oct-02 01:33N 44°43' E 037°48'0 0.0
2014-Oct-02 00:33N 44°43' E 037°48'0 0.0
2014-Oct-01 23:32N 44°43' E 037°48'0 0.0
2014-Oct-01 22:31N 44°43' E 037°48'0 0.0
2014-Oct-01 21:31N 44°43' E 037°48'0 0.0
2014-Oct-01 20:33N 44°43' E 037°48'0 0.0
2014-Oct-01 19:33N 44°43' E 037°48'0 0.0
2014-Oct-01 18:32N 44°43' E 037°48'0 0.0
2014-Oct-01 17:32N 44°43' E 037°48'0 0.0
2014-Oct-01 16:32N 44°43' E 037°48'0 0.0
2014-Oct-01 15:31N 44°43' E 037°48'0 0.0
2014-Oct-01 14:31N 44°43' E 037°48'0 0.0
2014-Oct-01 13:31N 44°43' E 037°48'0 0.0
2014-Oct-01 12:32N 44°43' E 037°48'0 0.0
2014-Oct-01 11:32N 44°43' E 037°48'0 0.0
2014-Oct-01 10:32N 44°43' E 037°48'0 0.0
2014-Oct-01 09:32N 44°43' E 037°48'0 0.0
2014-Oct-01 08:32N 44°43' E 037°48'  
2014-Sep-29 03:26N 44°43' E 037°48'0 0.0
2014-Sep-29 02:33N 44°43' E 037°48'0 0.0
2014-Sep-29 01:32N 44°43' E 037°48'0 0.0
2014-Sep-29 00:32N 44°43' E 037°48'0 0.0
2014-Sep-28 23:32N 44°43' E 037°48'0 0.0
2014-Sep-28 22:33N 44°43' E 037°48'0 0.0
2014-Sep-28 21:33N 44°43' E 037°48'0 0.0
2014-Sep-28 20:33N 44°43' E 037°48'0 0.0
2014-Sep-28 19:31N 44°43' E 037°48'0 0.0
2014-Sep-28 18:32N 44°43' E 037°48'0 0.0
2014-Sep-28 17:34N 44°43' E 037°48'0 0.0
2014-Sep-28 16:32N 44°43' E 037°48'0 0.0
2014-Sep-28 15:31N 44°43' E 037°48'0 0.0
2014-Sep-28 14:34N 44°43' E 037°48'0 0.0
2014-Sep-28 13:33N 44°43' E 037°48'0 0.0
2014-Sep-28 12:32N 44°43' E 037°48'0 0.0
2014-Sep-28 11:32N 44°43' E 037°48'0 0.0
2014-Sep-28 10:32N 44°43' E 037°48'0 0.0
2014-Sep-28 09:32N 44°43' E 037°48'0 0.0
2014-Sep-28 08:33N 44°43' E 037°48'0 0.0
2014-Sep-28 07:33N 44°43' E 037°48'0 0.0
2014-Sep-28 06:31N 44°43' E 037°48'0 0.1
2014-Sep-28 05:33N 44°43' E 037°48'0 0.0
2014-Sep-28 04:28N 44°43' E 037°48'0 0.0
2014-Sep-28 03:31N 44°43' E 037°48'0 0.0
2014-Sep-28 02:34N 44°43' E 037°48'0 0.0
2014-Sep-28 01:31N 44°43' E 037°48'0 0.0
2014-Sep-27 23:32N 44°43' E 037°48'0 0.0
2014-Sep-27 22:33N 44°43' E 037°48'0 0.0
2014-Sep-27 21:32N 44°43' E 037°48'0 0.0
2014-Sep-27 20:33N 44°43' E 037°48'0 0.0
2014-Sep-27 19:32N 44°43' E 037°48'0 0.0
2014-Sep-27 18:33N 44°43' E 037°48'0 0.0
2014-Sep-27 17:32N 44°43' E 037°48'0 0.0
2014-Sep-27 16:34N 44°43' E 037°48'0 0.0
2014-Sep-27 15:33N 44°43' E 037°48'0 0.0
2014-Sep-27 14:32N 44°43' E 037°48'0 0.0
2014-Sep-27 13:34N 44°43' E 037°48'0 0.0
2014-Sep-27 12:33N 44°43' E 037°48'0 0.0
2014-Sep-27 11:33N 44°43' E 037°48'0 0.0
2014-Sep-27 10:33N 44°43' E 037°48'0 0.1
2014-Sep-27 09:15N 44°43' E 037°48'0 0.1
2014-Sep-27 08:32N 44°43' E 037°48'0 0.0
2014-Sep-27 07:33N 44°43' E 037°48'1 1.5
2014-Sep-27 06:33N 44°42' E 037°49'6 6.0
2014-Sep-27 05:33N 44°36' E 037°52'7 7.0
2014-Sep-27 04:33N 44°31' E 037°46'7 7.4
2014-Sep-27 03:33N 44°27' E 037°37'432 8.5
2014-Sep-25 00:29N 41°01' E 029°00'7 7.5
2014-Sep-24 23:33N 40°55' E 028°57'5 4.2
2014-Sep-24 22:26N 40°50' E 028°55'6 6.4
2014-Sep-24 21:33N 40°46' E 029°01'1 1.3
2014-Sep-24 20:31N 40°45' E 029°01'1 1.1
2014-Sep-24 19:29N 40°44' E 029°03'1 1.2
2014-Sep-24 18:32N 40°44' E 029°04'0 0.5
2014-Sep-24 17:33N 40°44' E 029°04'0 0.3
2014-Sep-24 16:22N 40°43' E 029°04'0 0.3
2014-Sep-24 15:29N 40°43' E 029°04'0 0.5
2014-Sep-24 14:32N 40°43' E 029°04'1 0.7
2014-Sep-24 13:30N 40°43' E 029°03'1 1.0
2014-Sep-24 12:25N 40°43' E 029°01'1 1.1
2014-Sep-24 11:33N 40°43' E 029°00'1 1.3
2014-Sep-24 10:28N 40°42' E 028°58'1 1.1
2014-Sep-24 09:33N 40°42' E 028°57'1 1.2
2014-Sep-24 08:33N 40°42' E 028°55'1 1.0
2014-Sep-24 07:32N 40°42' E 028°54'1 1.0
2014-Sep-24 06:31N 40°43' E 028°53'2 1.0
2014-Sep-24 04:24N 40°43' E 028°50'1 0.9
2014-Sep-24 03:21N 40°44' E 028°49'1 0.6
2014-Sep-24 02:04N 40°44' E 028°48'3 5.3
2014-Sep-24 01:33N 40°45' E 028°51'6 5.6
2014-Sep-24 00:33N 40°43' E 028°57'1 1.0
2014-Sep-23 23:29N 40°42' E 028°56'1 1.2
2014-Sep-23 22:33N 40°43' E 028°55'2 1.3
2014-Sep-23 21:09N 40°44' E 028°53'1 1.3
2014-Sep-23 20:24N 40°44' E 028°52'1 1.3
2014-Sep-23 19:27N 40°45' E 028°51'3 1.5
2014-Sep-23 17:30N 40°46' E 028°47'5 4.6
2014-Sep-23 16:29N 40°44' E 028°52'4 3.9
2014-Sep-23 15:26N 40°42' E 028°57'2 2.2
2014-Sep-23 14:31N 40°44' E 028°56'4 3.7
2014-Sep-23 13:23N 40°48' E 028°56'2 2.0
2014-Sep-23 12:26N 40°49' E 028°54'6 6.8
2014-Sep-23 11:33N 40°55' E 028°56'3 2.2
2014-Sep-23 10:06N 40°58' E 028°54'0 0.0
2014-Sep-23 08:26N 40°58' E 028°54'0 0.0
2014-Sep-23 07:31N 40°58' E 028°54'0 0.0
2014-Sep-23 05:33N 40°58' E 028°54'0 0.0
2014-Sep-23 04:33N 40°58' E 028°54'0 0.0
2014-Sep-23 03:33N 40°58' E 028°54'0 0.0
2014-Sep-22 22:26N 40°58' E 028°54'0 0.0
2014-Sep-22 20:33N 40°58' E 028°54'0 0.1
2014-Sep-22 19:33N 40°58' E 028°54'0 0.0
2014-Sep-22 17:21N 40°58' E 028°54'0 0.0
2014-Sep-22 16:04N 40°58' E 028°54'0 0.0
2014-Sep-22 15:26N 40°58' E 028°54'0 0.1
2014-Sep-22 14:30N 40°58' E 028°54'0 0.0
2014-Sep-22 08:06N 40°58' E 028°54'  

Dump ship's entire track history